CYDB

Burwash Airport

Burwash, , Canada
METAR CYDB 202000Z 10008KT 30SM FEW120 BKN150 BKN210 17/09 A3014 RMK AC1AS4CS2 SLP223 DENSITY ALT 3200FT
Observed Flight Rules
Aug-20 @ 20:00 UTC (31 minutes ago) Visual Flight Rules
Wind Visibility Clouds
100° at 8 knots 30 miles
  • Few at 12,000' AGL
  • Broken at 15,000' AGL
  • Broken at 21,000' AGL
Temperatures Readings
Current 17°C / 63°F
Dewpoint 9°C / 48°F
Humidity 59%
Altimeter 30.14" Hg
Pressure 1022.3 hPa
Elevation 801
METAR CYDB 202000Z 10008KT 30SM FEW120 BKN150 BKN210 17/09 A3014 RMK AC1AS4CS2 SLP223 DENSITY ALT 3200FT
Observed Flight Rules
Aug-20 @ 20:00 UTC
(31 minutes ago)
VFR
Wind Visibility
100° at 8 knots 30 miles
Clouds
  • Few at 12,000' AGL
  • Broken at 15,000' AGL
  • Broken at 21,000' AGL
Temperature Dewpoint
17°C / 63°F 9°C / 48°F
Humidity Altimeter Pressure
59% 30.14" Hg 1022.3 hPa